createdAt,value
2023-04-11T08:40:07.508Z,23.15
2023-04-11T08:43:00.296Z,20.98
2023-04-11T08:45:46.214Z,21.00
2023-04-11T08:48:33.113Z,20.52
2023-04-11T08:51:27.076Z,18.30
2023-04-11T08:54:14.930Z,21.83
2023-04-11T08:57:00.612Z,18.70
2023-04-11T08:59:53.527Z,18.90
2023-04-11T09:03:03.810Z,16.98
2023-04-11T09:08:39.528Z,16.48
2023-04-11T09:11:27.238Z,16.38
2023-04-11T09:14:13.318Z,18.02
2023-04-11T09:17:01.206Z,17.80
2023-04-11T09:19:49.145Z,18.60
2023-04-11T09:22:36.245Z,17.20
2023-04-11T09:25:23.310Z,17.20
2023-04-11T09:28:11.102Z,15.60
2023-04-11T09:30:56.887Z,14.25
2023-04-11T09:33:58.892Z,14.90
2023-04-11T09:36:54.655Z,13.77
2023-04-11T09:39:41.419Z,14.02
2023-04-11T09:42:27.891Z,14.05
2023-04-11T09:45:18.935Z,13.48
2023-04-11T09:50:52.174Z,14.68
2023-04-11T09:53:37.895Z,15.25
2023-04-11T09:56:26.711Z,14.40
2023-04-11T09:59:15.856Z,14.25
2023-04-11T10:02:04.363Z,16.63
2023-04-11T10:04:51.541Z,15.73
2023-04-11T10:08:00.765Z,13.13
2023-04-11T10:10:46.664Z,14.32
2023-04-11T10:13:43.753Z,14.80
2023-04-11T10:16:34.131Z,15.05
2023-04-11T10:19:20.640Z,12.93
2023-04-11T10:22:06.915Z,13.30
2023-04-11T10:25:28.929Z,13.45
2023-04-11T10:28:29.822Z,13.23
2023-04-11T10:31:17.792Z,13.77
2023-04-11T10:34:21.390Z,13.85
2023-04-11T10:37:10.678Z,15.65
2023-04-11T10:40:04.264Z,13.82
2023-04-11T10:42:50.679Z,14.38
2023-04-11T10:45:40.036Z,13.30
2023-04-11T10:48:26.262Z,13.88
2023-04-11T10:51:27.087Z,14.88
2023-04-11T10:54:27.059Z,15.27
2023-04-11T10:57:16.041Z,13.75
2023-04-11T11:00:10.881Z,14.20
2023-04-11T11:02:57.444Z,16.65
2023-04-11T11:05:44.024Z,15.82
2023-04-11T11:08:41.867Z,16.08
2023-04-11T11:11:28.200Z,16.08
2023-04-11T11:14:28.414Z,20.60
2023-04-11T11:20:02.003Z,18.80
2023-04-11T11:23:01.773Z,19.55
2023-04-11T11:25:55.283Z,17.27
2023-04-11T11:28:48.830Z,16.35
2023-04-11T11:31:39.640Z,17.60
2023-04-11T11:34:31.146Z,16.52
2023-04-11T11:37:17.117Z,16.88
2023-04-11T11:40:09.368Z,17.15
2023-04-11T11:42:55.030Z,16.80
2023-04-11T11:45:41.811Z,21.70
2023-04-11T11:48:27.487Z,17.85
2023-04-11T11:51:14.744Z,16.92
2023-04-11T11:54:09.749Z,17.55
2023-04-11T11:56:56.446Z,18.83
2023-04-11T11:59:42.755Z,18.17
2023-04-11T12:02:29.734Z,17.80
2023-04-11T12:05:16.656Z,16.10
2023-04-11T12:08:06.193Z,15.38
2023-04-11T12:10:52.786Z,15.50
2023-04-11T12:13:39.269Z,15.93
2023-04-11T12:16:25.910Z,15.88
2023-04-11T12:19:13.460Z,16.75
2023-04-11T12:21:59.520Z,15.25
2023-04-11T12:24:46.656Z,15.00
2023-04-11T12:27:36.841Z,16.40
2023-04-11T12:30:23.247Z,16.85
2023-04-11T12:33:09.527Z,16.33
2023-04-11T12:35:56.431Z,16.85
2023-04-11T12:38:42.577Z,16.55
2023-04-11T12:41:32.517Z,15.82
2023-04-11T12:44:19.001Z,17.48
2023-04-11T12:47:05.883Z,15.40
2023-04-11T12:49:51.789Z,16.00
2023-04-11T12:52:38.577Z,15.93
2023-04-11T12:55:24.477Z,15.77
2023-04-11T12:58:10.609Z,16.10
2023-04-11T13:00:56.409Z,15.70
2023-04-11T13:03:42.703Z,15.52
2023-04-11T13:06:30.187Z,15.68
2023-04-11T13:09:16.902Z,15.43
2023-04-11T13:12:03.219Z,15.65
2023-04-11T13:14:49.157Z,17.30
2023-04-11T13:17:35.258Z,16.80
2023-04-11T13:20:22.784Z,28.77
2023-04-11T13:23:09.919Z,17.00
2023-04-11T13:25:57.539Z,28.20
2023-04-11T13:28:43.340Z,49.45
2023-04-11T13:31:29.806Z,19.98
2023-04-11T13:34:16.651Z,16.00
2023-04-11T13:37:02.860Z,25.17
2023-04-11T13:39:48.809Z,20.98
2023-04-11T13:42:35.403Z,16.45
2023-04-11T13:45:21.240Z,14.55
2023-04-11T13:48:07.824Z,16.92
2023-04-11T13:50:57.620Z,25.27
2023-04-11T13:53:46.730Z,15.77
2023-04-11T13:56:36.508Z,13.15
2023-04-11T13:59:24.065Z,15.50
2023-04-11T14:02:10.146Z,13.75
2023-04-11T14:04:56.380Z,11.95
2023-04-11T14:07:42.278Z,11.23
2023-04-11T14:10:28.512Z,9.73
2023-04-11T14:13:14.304Z,11.35
2023-04-11T14:16:08.546Z,9.70
2023-04-11T14:18:55.395Z,9.35
2023-04-11T14:21:41.710Z,8.73
2023-04-11T14:24:27.971Z,8.93
2023-04-11T14:27:14.835Z,9.20
2023-04-11T14:30:00.664Z,9.32
2023-04-11T14:32:47.148Z,8.90
2023-04-11T14:35:33.115Z,8.32
2023-04-11T14:38:19.749Z,7.53
2023-04-11T14:41:06.501Z,6.80
2023-04-11T14:43:52.496Z,6.60
2023-04-11T14:46:38.618Z,6.05
2023-04-11T14:49:25.935Z,5.82
2023-04-11T14:52:11.930Z,5.70
2023-04-11T14:54:58.269Z,5.90
2023-04-11T14:57:46.628Z,6.53
2023-04-11T15:00:33.021Z,6.30
2023-04-11T15:03:19.262Z,5.38
2023-04-11T15:06:06.862Z,6.75
2023-04-11T15:08:52.619Z,7.80
2023-04-11T15:11:39.202Z,6.10
2023-04-11T15:14:29.516Z,5.15
2023-04-11T15:20:01.520Z,4.80
2023-04-11T15:22:48.467Z,5.65
2023-04-11T15:25:34.442Z,5.13
2023-04-11T15:28:21.601Z,4.63
2023-04-11T15:31:09.471Z,3.72
2023-04-11T15:33:59.764Z,3.17
2023-04-11T15:36:47.189Z,2.95
2023-04-11T15:39:33.319Z,3.05
2023-04-11T15:42:19.084Z,3.08
2023-04-11T15:45:05.536Z,2.90
2023-04-11T15:47:51.447Z,3.30
2023-04-11T15:50:37.809Z,3.45
2023-04-11T15:53:24.457Z,3.47
2023-04-11T15:56:11.392Z,3.38
2023-04-11T15:58:57.354Z,3.38
2023-04-11T16:01:44.027Z,3.22
2023-04-11T16:04:30.666Z,3.25
2023-04-11T16:07:20.270Z,3.45
2023-04-11T16:10:08.639Z,3.65
2023-04-11T16:12:54.652Z,4.57
2023-04-11T16:15:40.448Z,5.20
2023-04-11T16:18:26.513Z,4.70
2023-04-11T16:21:16.331Z,4.80
2023-04-11T16:24:02.654Z,5.82
2023-04-11T16:26:48.755Z,5.30
2023-04-11T16:29:36.258Z,5.25
2023-04-11T16:32:23.225Z,3.60
2023-04-11T16:35:09.650Z,3.20
2023-04-11T16:37:55.561Z,3.20
2023-04-11T16:40:41.966Z,3.53
2023-04-11T16:43:27.737Z,3.45
2023-04-11T16:46:14.779Z,3.58
2023-04-11T16:49:01.065Z,3.90
2023-04-11T16:51:47.557Z,3.60
2023-04-11T16:54:34.346Z,4.00
2023-04-11T16:57:29.284Z,3.90
2023-04-11T17:00:16.820Z,3.60
2023-04-11T17:03:03.587Z,4.15
2023-04-11T17:05:54.874Z,4.07
2023-04-11T17:08:42.969Z,5.65
2023-04-11T17:11:28.899Z,5.25
2023-04-11T17:14:20.801Z,5.38
2023-04-11T17:17:10.409Z,4.63
2023-04-11T17:20:09.866Z,5.65
2023-04-11T17:22:58.238Z,4.88
2023-04-11T17:25:58.406Z,4.85
2023-04-11T17:28:44.895Z,4.32
2023-04-11T17:58:39.314Z,4.60
2023-04-11T18:24:14.968Z,7.53
2023-04-11T18:27:12.891Z,9.27
2023-04-11T18:30:13.136Z,9.70
2023-04-11T18:33:09.407Z,10.02
2023-04-11T18:36:04.229Z,11.27
2023-04-11T18:38:54.851Z,10.98
2023-04-11T18:41:48.416Z,10.43
2023-04-11T18:44:44.690Z,10.38
2023-04-11T18:47:48.429Z,11.48
2023-04-11T18:50:43.409Z,10.82
2023-04-11T18:53:32.531Z,10.80
2023-04-11T18:56:27.991Z,11.60
2023-04-11T18:59:18.444Z,13.15
2023-04-11T19:02:05.865Z,13.88
2023-04-11T19:04:55.633Z,13.00
2023-04-11T19:07:46.352Z,12.73
2023-04-11T19:10:32.756Z,11.30
2023-04-11T19:13:19.899Z,11.00
2023-04-11T19:16:07.692Z,12.75
2023-04-11T19:18:53.782Z,13.45
2023-04-11T19:21:40.678Z,14.98
2023-04-11T19:24:26.918Z,15.88
2023-04-11T19:27:14.145Z,15.18
2023-04-11T19:30:00.613Z,14.77
2023-04-11T19:32:48.043Z,13.52
2023-04-11T19:35:34.413Z,12.70
2023-04-11T19:38:22.006Z,12.55
2023-04-11T19:41:11.979Z,12.27
2023-04-11T19:43:59.070Z,13.15
2023-04-11T19:46:46.521Z,12.90
2023-04-11T19:49:33.000Z,13.95
2023-04-11T19:52:19.171Z,12.50
2023-04-11T19:55:06.326Z,13.65
2023-04-11T19:57:52.284Z,14.00
2023-04-11T20:00:38.838Z,13.50
2023-04-11T20:03:25.721Z,13.05
2023-04-11T20:06:13.934Z,13.10
2023-04-11T20:09:04.251Z,12.40
2023-04-11T20:11:51.221Z,15.52
2023-04-11T20:14:38.502Z,11.65
2023-04-11T20:17:26.182Z,10.65
2023-04-11T20:20:14.520Z,8.57
2023-04-11T20:23:04.994Z,7.75
2023-04-11T20:25:51.203Z,6.72
2023-04-11T20:28:38.211Z,6.07
2023-04-11T20:31:25.985Z,5.93
2023-04-11T20:34:12.343Z,5.97
2023-04-11T20:37:00.915Z,4.72
2023-04-11T20:39:51.690Z,4.80
2023-04-11T20:42:42.845Z,4.30
2023-04-11T20:45:31.126Z,4.85
2023-04-11T20:48:17.162Z,4.47
2023-04-11T20:51:04.074Z,4.03
2023-04-11T20:53:49.998Z,3.90
2023-04-11T20:56:36.723Z,3.55
2023-04-11T20:59:22.616Z,3.63
2023-04-11T21:02:08.633Z,4.10
2023-04-11T21:04:55.652Z,3.60
2023-04-11T21:07:42.316Z,3.97
2023-04-11T21:10:28.383Z,3.65
2023-04-11T21:13:14.365Z,3.67
2023-04-11T21:16:00.165Z,3.78
2023-04-11T21:18:46.519Z,3.67
2023-04-11T21:21:33.507Z,3.75
2023-04-11T21:24:19.778Z,3.95
2023-04-11T21:27:05.915Z,3.78
2023-04-11T21:29:52.386Z,3.97
2023-04-11T21:32:39.520Z,4.38
2023-04-11T21:35:26.164Z,4.47
2023-04-11T21:38:12.578Z,3.72
2023-04-11T21:40:59.054Z,3.88
2023-04-11T21:43:44.659Z,4.25
2023-04-11T21:46:32.350Z,4.55
2023-04-11T21:52:08.874Z,4.40
2023-04-11T21:54:54.678Z,4.75
2023-04-11T21:57:41.196Z,4.10
2023-04-11T22:00:27.585Z,4.72
2023-04-11T22:03:18.075Z,4.80
2023-04-11T22:06:04.231Z,4.93
2023-04-11T22:08:51.466Z,4.63
2023-04-11T22:11:36.991Z,5.00
2023-04-11T22:14:27.159Z,4.82
2023-04-11T22:17:13.239Z,4.95
2023-04-11T22:19:59.606Z,4.55
2023-04-11T22:22:45.403Z,4.50
2023-04-11T22:25:33.056Z,4.78
2023-04-11T22:28:20.424Z,4.22
2023-04-11T22:31:06.715Z,4.13
2023-04-11T22:33:52.673Z,4.10
2023-04-11T22:36:38.765Z,4.05
2023-04-11T22:39:25.515Z,4.25
2023-04-11T22:42:11.732Z,4.65
2023-04-11T22:44:57.403Z,4.75
2023-04-11T22:47:47.318Z,4.53
2023-04-11T22:50:37.358Z,4.63
2023-04-11T22:53:25.084Z,4.70
2023-04-11T22:56:11.452Z,4.35
2023-04-11T22:58:57.546Z,4.95
2023-04-11T23:01:44.749Z,4.55
2023-04-11T23:04:32.387Z,5.20
2023-04-11T23:07:18.431Z,4.97
2023-04-11T23:10:06.198Z,4.97
2023-04-11T23:12:52.359Z,5.03
2023-04-11T23:15:39.497Z,5.40
2023-04-11T23:18:25.378Z,5.55
2023-04-11T23:21:13.327Z,5.88
2023-04-11T23:23:59.372Z,5.30
2023-04-11T23:26:45.305Z,5.32
2023-04-11T23:29:31.322Z,5.75
2023-04-11T23:32:19.086Z,5.47
2023-04-11T23:35:06.394Z,6.20
2023-04-11T23:37:52.761Z,7.32
2023-04-11T23:40:38.767Z,6.80
2023-04-11T23:43:25.123Z,6.40
2023-04-11T23:46:11.887Z,6.10
2023-04-11T23:48:58.013Z,5.75
2023-04-11T23:51:43.828Z,6.15
2023-04-11T23:54:30.434Z,5.93
2023-04-11T23:57:17.196Z,5.35
